createdAt,value
2022-08-07T00:00:34.698Z,100363.03
2022-08-07T00:03:37.162Z,100367.50
2022-08-07T00:06:51.141Z,100366.94
2022-08-07T00:10:19.318Z,100373.72
2022-08-07T00:13:23.885Z,100371.19
2022-08-07T00:16:29.349Z,100372.19
2022-08-07T00:19:59.670Z,100368.16
2022-08-07T00:22:56.751Z,100369.78
2022-08-07T00:26:06.909Z,100370.94
2022-08-07T00:29:26.491Z,100367.16
2022-08-07T00:32:34.868Z,100366.72
2022-08-07T00:35:37.473Z,100358.09
2022-08-07T00:38:41.178Z,100367.34
2022-08-07T00:41:53.521Z,100361.78
2022-08-07T00:45:07.160Z,100366.34
2022-08-07T00:48:11.217Z,100364.91
2022-08-07T00:51:15.053Z,100361.03
2022-08-07T00:54:19.908Z,100360.97
2022-08-07T00:57:26.242Z,100361.97
2022-08-07T01:00:29.245Z,100359.16
2022-08-07T01:03:56.903Z,100364.06
2022-08-07T01:06:57.871Z,100364.00
2022-08-07T01:10:06.538Z,100355.53
2022-08-07T01:13:16.434Z,100360.59
2022-08-07T01:16:30.602Z,100357.91
2022-08-07T01:19:34.378Z,100355.53
2022-08-07T01:22:46.677Z,100365.53
2022-08-07T01:25:58.368Z,100363.50
2022-08-07T01:29:01.093Z,100361.94
2022-08-07T01:32:05.380Z,100356.06
2022-08-07T01:35:10.120Z,100356.06
2022-08-07T01:38:24.793Z,100352.03
2022-08-07T01:41:28.435Z,100357.38
2022-08-07T01:44:31.574Z,100359.28
2022-08-07T01:48:29.490Z,100356.34
2022-08-07T01:51:24.509Z,100354.97
2022-08-07T01:54:32.878Z,100357.72
2022-08-07T01:58:06.337Z,100361.66
2022-08-07T02:01:10.071Z,100357.75
2022-08-07T02:04:32.003Z,100359.88
2022-08-07T02:07:50.086Z,100368.56
2022-08-07T02:10:58.101Z,100363.34
2022-08-07T02:14:02.691Z,100372.13
2022-08-07T02:17:06.919Z,100372.31
2022-08-07T02:20:17.508Z,100375.72
2022-08-07T02:23:26.810Z,100375.41
2022-08-07T02:26:32.588Z,100378.56
2022-08-07T02:29:48.601Z,100374.69
2022-08-07T02:33:09.049Z,100373.00
2022-08-07T02:36:30.865Z,100381.09
2022-08-07T02:39:43.907Z,100388.72
2022-08-07T02:43:01.137Z,100389.28
2022-08-07T02:46:11.969Z,100392.75
2022-08-07T02:49:55.603Z,100389.72
2022-08-07T02:52:44.195Z,100389.47
2022-08-07T02:56:03.915Z,100391.19
2022-08-07T03:02:10.449Z,100397.00
2022-08-07T03:05:20.559Z,100396.53
2022-08-07T03:08:29.549Z,100392.78
2022-08-07T03:11:38.522Z,100382.97
2022-08-07T03:14:42.113Z,100391.31
2022-08-07T03:17:53.253Z,100385.16
2022-08-07T03:20:58.411Z,100392.25
2022-08-07T03:24:20.592Z,100391.47
2022-08-07T03:27:30.520Z,100392.94
2022-08-07T03:30:34.597Z,100391.31
2022-08-07T03:33:40.137Z,100392.59
2022-08-07T03:36:44.417Z,100388.75
2022-08-07T03:39:59.421Z,100391.31
2022-08-07T03:43:03.428Z,100389.91
2022-08-07T03:46:10.583Z,100392.94
2022-08-07T03:49:21.218Z,100393.06
2022-08-07T03:52:26.343Z,100395.88
2022-08-07T03:55:52.946Z,100395.28
2022-08-07T03:59:09.353Z,100406.34
2022-08-07T04:02:15.028Z,100409.56
2022-08-07T04:05:28.676Z,100414.41
2022-08-07T04:08:42.126Z,100417.56
2022-08-07T04:12:25.414Z,100430.56
2022-08-07T04:15:09.527Z,100429.25
2022-08-07T04:18:57.183Z,100438.16
2022-08-07T04:21:58.916Z,100441.38
2022-08-07T04:25:02.722Z,100435.97
2022-08-07T04:28:06.936Z,100436.91
2022-08-07T04:31:20.162Z,100443.31
2022-08-07T04:34:27.406Z,100443.94
2022-08-07T04:40:56.758Z,100456.03
2022-08-07T04:44:12.443Z,100452.94
2022-08-07T04:48:01.724Z,100457.25
2022-08-07T04:51:18.312Z,100455.69
2022-08-07T04:54:30.088Z,100456.50
2022-08-07T04:58:13.160Z,100463.84
2022-08-07T05:01:35.288Z,100460.34
2022-08-07T05:04:50.331Z,100468.88
2022-08-07T05:07:58.764Z,100466.31
2022-08-07T05:11:24.514Z,100465.59
2022-08-07T05:14:52.508Z,100466.94
2022-08-07T05:18:01.559Z,100469.09
2022-08-07T05:21:12.945Z,100472.47
2022-08-07T05:24:18.026Z,100473.28
2022-08-07T05:28:03.104Z,100476.41
2022-08-07T05:30:47.112Z,100479.06
2022-08-07T05:34:04.603Z,100484.84
2022-08-07T05:37:09.215Z,100488.69
2022-08-07T05:40:18.931Z,100488.50
2022-08-07T05:43:49.718Z,100495.31
2022-08-07T05:46:52.542Z,100505.16
2022-08-07T05:49:56.854Z,100507.13
2022-08-07T05:53:02.786Z,100513.94
2022-08-07T05:56:08.630Z,100505.22
2022-08-07T05:59:19.308Z,100503.84
2022-08-07T06:02:28.852Z,100498.88
2022-08-07T06:05:32.036Z,100501.53
2022-08-07T06:08:37.946Z,100496.31
2022-08-07T06:11:45.468Z,100504.41
2022-08-07T06:14:49.913Z,100497.94
2022-08-07T06:17:55.015Z,100497.72
2022-08-07T06:22:14.760Z,100504.44
2022-08-07T06:24:38.625Z,100507.41
2022-08-07T06:28:01.071Z,100521.19
2022-08-07T06:31:04.531Z,100521.28
2022-08-07T06:34:08.275Z,100523.84
2022-08-07T06:37:17.291Z,100530.28
2022-08-07T06:40:22.912Z,100532.19
2022-08-07T06:43:27.321Z,100529.72
2022-08-07T06:46:43.453Z,100536.50
2022-08-07T06:49:58.670Z,100540.91
2022-08-07T06:53:04.437Z,100548.97
2022-08-07T06:56:15.215Z,100547.06
2022-08-07T07:00:11.760Z,100545.66
2022-08-07T07:02:53.335Z,100553.53
2022-08-07T07:06:04.356Z,100553.78
2022-08-07T07:09:31.269Z,100543.28
2022-08-07T07:12:37.411Z,100536.31
2022-08-07T07:15:51.528Z,100529.97
2022-08-07T07:19:04.066Z,100543.41
2022-08-07T07:22:36.622Z,100542.75
2022-08-07T07:26:34.662Z,100546.69
2022-08-07T07:29:40.081Z,100545.28
2022-08-07T07:32:33.818Z,100533.41
2022-08-07T07:35:54.211Z,100539.47
2022-08-07T07:39:03.658Z,100526.25
2022-08-07T07:42:13.396Z,100538.41
2022-08-07T07:45:17.418Z,100530.16
2022-08-07T07:48:35.313Z,100536.03
2022-08-07T07:51:57.867Z,100538.37
2022-08-07T07:55:03.386Z,100533.59
2022-08-07T07:58:06.367Z,100537.47
2022-08-07T08:02:02.263Z,100532.03
2022-08-07T08:04:33.837Z,100541.72
2022-08-07T08:07:42.483Z,100545.28
2022-08-07T08:11:01.472Z,100544.78
2022-08-07T08:14:06.645Z,100541.22
2022-08-07T08:17:32.443Z,100544.69
2022-08-07T08:20:34.535Z,100548.19
2022-08-07T08:23:57.440Z,100544.81
2022-08-07T08:27:09.310Z,100544.38
2022-08-07T08:30:14.258Z,100545.69
2022-08-07T08:33:20.626Z,100542.41
2022-08-07T08:36:30.085Z,100540.50
2022-08-07T08:39:39.611Z,100548.25
2022-08-07T08:43:15.945Z,100553.72
2022-08-07T08:46:20.513Z,100550.56
2022-08-07T08:49:57.198Z,100552.19
2022-08-07T08:52:58.705Z,100547.03
2022-08-07T08:56:06.617Z,100551.50
2022-08-07T08:59:13.568Z,100547.84
2022-08-07T09:02:34.694Z,100549.03
2022-08-07T09:05:56.334Z,100552.34
2022-08-07T09:09:09.423Z,100554.38
2022-08-07T09:12:31.182Z,100560.38
2022-08-07T09:16:25.228Z,100556.66
2022-08-07T09:19:51.752Z,100564.03
2022-08-07T09:24:32.923Z,100567.78
2022-08-07T09:26:40.798Z,100558.72
2022-08-07T09:30:06.372Z,100549.66
2022-08-07T09:33:16.235Z,100551.28
2022-08-07T09:36:37.323Z,100557.06
2022-08-07T09:39:58.027Z,100553.50
2022-08-07T09:43:20.309Z,100553.78
2022-08-07T09:47:52.781Z,100542.94
2022-08-07T09:50:19.175Z,100547.28
2022-08-07T09:53:25.145Z,100545.37
2022-08-07T09:56:47.023Z,100543.41
2022-08-07T10:00:02.150Z,100534.69
2022-08-07T10:04:05.331Z,100524.31
2022-08-07T10:07:24.148Z,100525.63
2022-08-07T10:10:30.692Z,100525.31
2022-08-07T10:13:55.541Z,100521.44
2022-08-07T10:17:13.400Z,100519.63
2022-08-07T10:20:37.697Z,100515.06
2022-08-07T10:24:05.581Z,100511.28
2022-08-07T10:27:11.523Z,100508.44
2022-08-07T10:30:17.699Z,100508.53
2022-08-07T10:33:20.137Z,100501.31
2022-08-07T10:36:49.812Z,100498.22
2022-08-07T10:40:02.613Z,100489.91
2022-08-07T10:43:11.638Z,100494.69
2022-08-07T10:46:23.333Z,100489.06
2022-08-07T10:49:45.314Z,100479.50
2022-08-07T10:53:08.078Z,100472.31
2022-08-07T10:56:21.004Z,100466.03
2022-08-07T10:59:52.535Z,100471.84
2022-08-07T11:03:14.759Z,100459.94
2022-08-07T11:06:32.481Z,100466.06
2022-08-07T11:10:08.893Z,100467.00
2022-08-07T11:13:07.369Z,100463.22
2022-08-07T11:16:31.448Z,100458.72
2022-08-07T11:19:33.975Z,100456.56
2022-08-07T11:22:45.585Z,100447.19
2022-08-07T11:26:13.174Z,100453.41
2022-08-07T11:29:43.068Z,100440.87
2022-08-07T11:32:53.600Z,100437.16
2022-08-07T11:36:11.445Z,100438.19
2022-08-07T11:39:59.094Z,100435.16
2022-08-07T11:43:08.309Z,100436.34
2022-08-07T11:46:29.022Z,100427.91
2022-08-07T11:50:11.524Z,100431.88
2022-08-07T11:53:35.193Z,100434.25
2022-08-07T11:56:56.452Z,100419.34
2022-08-07T12:00:19.271Z,100425.47
2022-08-07T12:03:45.767Z,100409.31
2022-08-07T12:07:00.064Z,100411.34
2022-08-07T12:10:24.040Z,100409.25
2022-08-07T12:13:48.485Z,100410.06
2022-08-07T12:16:54.193Z,100397.72
2022-08-07T12:20:04.789Z,100401.22
2022-08-07T12:23:09.406Z,100405.63
2022-08-07T12:26:29.097Z,100401.47
2022-08-07T12:29:43.190Z,100395.34
2022-08-07T12:33:18.923Z,100395.78
2022-08-07T12:36:33.271Z,100386.06
2022-08-07T12:39:42.917Z,100383.56
2022-08-07T12:42:55.192Z,100377.31
2022-08-07T12:45:59.059Z,100379.03
2022-08-07T12:49:44.275Z,100368.25
2022-08-07T12:53:17.969Z,100375.34
2022-08-07T12:56:29.636Z,100386.63
2022-08-07T12:59:54.596Z,100370.78
2022-08-07T13:03:06.747Z,100374.69
2022-08-07T13:06:21.922Z,100371.25
2022-08-07T13:10:19.843Z,100376.25
2022-08-07T13:13:47.132Z,100362.75
2022-08-07T13:16:39.204Z,100370.19
2022-08-07T13:19:53.070Z,100362.03
2022-08-07T13:23:00.556Z,100364.81
2022-08-07T13:26:20.237Z,100352.47
2022-08-07T13:29:34.682Z,100359.41
2022-08-07T13:32:40.419Z,100364.38
2022-08-07T13:36:00.513Z,100356.53
2022-08-07T13:39:12.696Z,100358.94
2022-08-07T13:42:24.833Z,100349.91
2022-08-07T13:46:12.413Z,100341.25
2022-08-07T13:48:58.730Z,100336.50
2022-08-07T13:52:30.765Z,100335.47
2022-08-07T13:55:29.457Z,100328.28
2022-08-07T13:58:57.075Z,100323.12
2022-08-07T14:02:07.907Z,100317.66
2022-08-07T14:05:12.404Z,100313.66
2022-08-07T14:08:15.648Z,100308.25
2022-08-07T14:11:19.142Z,100309.78
2022-08-07T14:14:28.757Z,100309.56
2022-08-07T14:18:27.668Z,100307.69
2022-08-07T14:20:59.417Z,100304.75
2022-08-07T14:24:28.169Z,100311.44
2022-08-07T14:28:10.445Z,100306.34
2022-08-07T14:31:05.029Z,100298.69
2022-08-07T14:34:07.666Z,100295.75
2022-08-07T14:37:16.410Z,100287.50
2022-08-07T14:40:26.686Z,100288.53
2022-08-07T14:43:58.118Z,100288.28
2022-08-07T14:50:20.584Z,100278.28
2022-08-07T14:53:49.523Z,100285.84
2022-08-07T14:56:48.522Z,100277.13
2022-08-07T15:00:06.220Z,100273.66
2022-08-07T15:03:18.620Z,100272.25
2022-08-07T15:06:23.941Z,100269.91
2022-08-07T15:09:57.588Z,100264.37
2022-08-07T15:12:55.050Z,100266.72
2022-08-07T15:16:03.257Z,100265.59
2022-08-07T15:19:07.260Z,100264.72
2022-08-07T15:22:16.456Z,100253.25
2022-08-07T15:25:37.521Z,100253.31
2022-08-07T15:28:47.296Z,100266.63
2022-08-07T15:36:02.494Z,100253.19
2022-08-07T15:38:51.193Z,100247.19
2022-08-07T15:45:56.196Z,100239.59
2022-08-07T15:49:11.991Z,100242.31
2022-08-07T15:52:20.953Z,100237.88
2022-08-07T15:55:24.553Z,100241.59
2022-08-07T15:58:52.325Z,100238.00
2022-08-07T16:02:01.920Z,100237.09
2022-08-07T16:05:15.171Z,100237.88
2022-08-07T16:08:32.553Z,100240.81
2022-08-07T16:11:42.528Z,100238.13
2022-08-07T16:14:48.769Z,100236.47
2022-08-07T16:18:02.820Z,100237.37
2022-08-07T16:22:01.854Z,100232.22
2022-08-07T16:25:02.436Z,100234.78
2022-08-07T16:29:18.458Z,100241.31
2022-08-07T16:31:51.312Z,100229.78
2022-08-07T16:35:56.345Z,100236.87
2022-08-07T16:39:01.004Z,100240.53
2022-08-07T16:42:09.942Z,100240.87
2022-08-07T16:46:33.730Z,100235.28
2022-08-07T16:50:26.771Z,100242.41
2022-08-07T16:52:51.227Z,100232.81
2022-08-07T16:55:58.873Z,100224.97
2022-08-07T16:59:23.753Z,100238.22
2022-08-07T17:02:53.590Z,100232.25
2022-08-07T17:06:29.628Z,100233.53
2022-08-07T17:10:06.314Z,100241.50
2022-08-07T17:13:19.051Z,100244.28
2022-08-07T17:16:25.006Z,100240.16
2022-08-07T17:20:02.908Z,100241.16
2022-08-07T17:22:59.759Z,100245.91
2022-08-07T17:26:23.197Z,100244.84
2022-08-07T17:30:13.939Z,100242.38
2022-08-07T17:34:08.366Z,100244.50
2022-08-07T17:36:48.998Z,100236.19
2022-08-07T17:40:08.761Z,100243.91
2022-08-07T17:43:18.767Z,100242.38
2022-08-07T17:46:34.839Z,100245.66
2022-08-07T17:49:44.736Z,100254.06
2022-08-07T17:52:58.996Z,100254.53
2022-08-07T17:56:28.611Z,100253.94
2022-08-07T17:59:41.592Z,100254.69
2022-08-07T18:02:56.671Z,100259.25
2022-08-07T18:06:09.401Z,100265.78
2022-08-07T18:09:48.333Z,100273.91
2022-08-07T18:13:03.863Z,100289.41
2022-08-07T18:16:06.458Z,100292.56
2022-08-07T18:21:10.003Z,100298.25
2022-08-07T18:22:33.783Z,100300.56
2022-08-07T18:25:40.276Z,100299.06
2022-08-07T18:29:02.774Z,100296.59
2022-08-07T18:32:25.688Z,100301.25
2022-08-07T18:35:57.493Z,100310.63
2022-08-07T18:40:05.075Z,100305.13
2022-08-07T18:42:55.505Z,100306.25
2022-08-07T18:46:24.903Z,100310.00
2022-08-07T18:50:30.355Z,100318.69
2022-08-07T18:53:12.464Z,100320.72
2022-08-07T18:56:18.188Z,100326.44
2022-08-07T18:59:57.217Z,100322.19
2022-08-07T19:02:58.657Z,100343.91
2022-08-07T19:06:05.628Z,100332.88
2022-08-07T19:09:57.158Z,100338.69
2022-08-07T19:12:57.793Z,100339.59
2022-08-07T19:17:01.402Z,100349.84
2022-08-07T19:19:41.395Z,100347.62
2022-08-07T19:22:49.658Z,100360.59
2022-08-07T19:26:23.263Z,100356.75
2022-08-07T19:31:03.463Z,100369.78
2022-08-07T19:32:46.051Z,100377.81
2022-08-07T19:35:53.229Z,100383.06
2022-08-07T19:38:59.505Z,100388.09
2022-08-07T19:42:08.045Z,100391.00
2022-08-07T19:46:06.204Z,100397.78
2022-08-07T19:49:09.382Z,100404.22
2022-08-07T19:52:27.749Z,100407.75
2022-08-07T19:55:56.353Z,100405.72
2022-08-07T19:58:57.183Z,100403.06
2022-08-07T20:02:01.909Z,100414.19
2022-08-07T20:05:07.818Z,100416.25
2022-08-07T20:08:19.984Z,100416.47
2022-08-07T20:12:01.517Z,100410.97
2022-08-07T20:14:54.213Z,100408.50
2022-08-07T20:18:04.540Z,100411.00
2022-08-07T20:21:14.874Z,100418.59
2022-08-07T20:24:28.650Z,100420.47
2022-08-07T20:27:47.441Z,100422.72
2022-08-07T20:30:53.099Z,100429.06
2022-08-07T20:33:57.398Z,100424.34
2022-08-07T20:37:01.176Z,100423.09
2022-08-07T20:40:32.926Z,100425.38
2022-08-07T20:43:33.235Z,100427.63
2022-08-07T20:46:44.395Z,100430.28
2022-08-07T20:49:58.975Z,100428.22
2022-08-07T20:53:03.569Z,100426.34
2022-08-07T20:56:12.989Z,100429.47
2022-08-07T21:00:04.860Z,100427.00
2022-08-07T21:03:03.750Z,100431.50
2022-08-07T21:06:25.866Z,100435.81
2022-08-07T21:09:52.154Z,100431.81
2022-08-07T21:12:56.642Z,100441.47
2022-08-07T21:16:06.684Z,100441.63
2022-08-07T21:19:14.087Z,100443.81
2022-08-07T21:22:19.470Z,100445.41
2022-08-07T21:25:56.507Z,100446.16
2022-08-07T21:29:12.886Z,100458.22
2022-08-07T21:32:44.240Z,100455.34
2022-08-07T21:36:03.900Z,100456.12
2022-08-07T21:39:45.090Z,100456.53
2022-08-07T21:42:48.303Z,100461.69
2022-08-07T21:46:10.863Z,100463.06
2022-08-07T21:50:02.807Z,100469.81
2022-08-07T21:53:07.662Z,100468.66
2022-08-07T21:56:36.017Z,100470.59
2022-08-07T22:00:05.418Z,100468.41
2022-08-07T22:03:16.587Z,100480.28
2022-08-07T22:06:30.079Z,100484.28
2022-08-07T22:09:38.062Z,100487.94
2022-08-07T22:13:09.180Z,100492.16
2022-08-07T22:16:45.429Z,100479.34
2022-08-07T22:20:05.762Z,100485.13
2022-08-07T22:23:15.378Z,100477.94
2022-08-07T22:26:24.529Z,100476.16
2022-08-07T22:29:48.270Z,100480.87
2022-08-07T22:33:09.753Z,100476.66
2022-08-07T22:36:26.655Z,100478.94
2022-08-07T22:39:51.708Z,100482.06
2022-08-07T22:43:07.388Z,100479.47
2022-08-07T22:47:02.875Z,100489.50
2022-08-07T22:50:00.826Z,100488.50
2022-08-07T22:53:17.976Z,100487.41
2022-08-07T22:56:43.661Z,100486.59
2022-08-07T22:59:53.623Z,100489.25
2022-08-07T23:03:16.710Z,100493.12
2022-08-07T23:06:34.141Z,100500.19
2022-08-07T23:10:03.810Z,100497.53
2022-08-07T23:14:09.144Z,100502.19
2022-08-07T23:17:02.849Z,100516.41
2022-08-07T23:20:52.784Z,100510.00
2022-08-07T23:24:05.145Z,100506.84
2022-08-07T23:27:33.550Z,100503.09
2022-08-07T23:34:35.023Z,100504.84
2022-08-07T23:38:01.044Z,100513.47
2022-08-07T23:41:17.049Z,100509.06
2022-08-07T23:44:24.736Z,100504.47
2022-08-07T23:47:48.777Z,100503.47
2022-08-07T23:51:04.341Z,100509.88
2022-08-07T23:54:52.140Z,100511.09
2022-08-07T23:58:01.300Z,100510.53
